Time;durP1;ratioP1;P1;durP2;ratioP2;P2;SDS_P1;SDS_P2;PMS_P1;PMS_P2;Temp;Humidity;BMP_temperature;BMP_pressure;BME280_temperature;BME280_humidity;BME280_pressure;Samples;Min_cycle;Max_cycle;Signal;HPM_P1;HPM_P2
2022/04/01 00:01:40;;;;;;;0.10;0.10;;;;;;;;;;5037229;28;20033;-88
2022/04/01 00:04:06;;;;;;;0.10;0.10;;;;;;;;;;5016098;28;20036;-88
2022/04/01 00:06:40;;;;;;;1.38;1.27;;;;;;;;;;5017068;28;20026;-88
2022/04/01 00:09:05;;;;;;;0.20;0.20;;;;;;;;;;5033471;28;20025;-87
2022/04/01 00:11:40;;;;;;;0.20;0.20;;;;;;;;;;5034686;28;20029;-87
2022/04/01 00:14:15;;;;;;;0.95;0.80;;;;;;;;;;5034660;28;20652;-88
2022/04/01 00:16:40;;;;;;;0.45;0.45;;;;;;;;;;5030413;28;20030;-86
2022/04/01 00:19:05;;;;;;;0.10;0.10;;;;;;;;;;5033649;28;20401;-84
2022/04/01 00:21:31;;;;;;;0.20;0.20;;;;;;;;;;5031415;28;20095;-87
2022/04/01 00:23:59;;;;;;;0.65;0.63;;;;;;;;;;5016959;28;20358;-86
2022/04/01 00:26:27;;;;;;;0.10;0.10;;;;;;;;;;5035145;28;20123;-86
2022/04/01 00:28:52;;;;;;;0.15;0.15;;;;;;;;;;5032497;28;20336;-87
2022/04/01 00:31:18;;;;;;;0.52;0.20;;;;;;;;;;5017816;28;20083;-85
2022/04/01 00:33:43;;;;;;;0.20;0.20;;;;;;;;;;5034835;28;20037;-84
2022/04/01 00:36:09;;;;;;;0.22;0.22;;;;;;;;;;5029766;28;20050;-86
2022/04/01 00:38:37;;;;;;;0.43;0.43;;;;;;;;;;5034493;28;20029;-84
2022/04/01 00:41:04;;;;;;;0.00;0.00;;;;;;;;;;5033982;28;20332;-87
2022/04/01 00:43:34;;;;;;;0.43;0.35;;;;;;;;;;5034511;28;20076;-85
2022/04/01 00:45:59;;;;;;;0.10;0.10;;;;;;;;;;5030120;28;20099;-87
2022/04/01 00:48:27;;;;;;;0.05;0.05;;;;;;;;;;5034410;28;20029;-85
2022/04/01 00:50:54;;;;;;;0.20;0.20;;;;;;;;;;5034640;28;20025;-88
2022/04/01 00:53:23;;;;;;;0.00;0.00;;;;;;;;;;5034600;28;20029;-89
2022/04/01 00:55:52;;;;;;;0.88;0.88;;;;;;;;;;5017457;28;20067;-87
2022/04/01 00:58:19;;;;;;;0.50;0.50;;;;;;;;;;5019111;28;20029;-88
2022/04/01 01:00:44;;;;;;;0.17;0.17;;;;;;;;;;5032900;28;20052;-88
2022/04/01 01:03:09;;;;;;;0.60;0.60;;;;;;;;;;5013460;28;20037;-85
2022/04/01 01:05:42;;;;;;;0.20;0.20;;;;;;;;;;5033056;28;20022;-87
2022/04/01 01:08:07;;;;;;;;;;;;;;;;;;5031251;28;20080;-85
2022/04/01 01:10:35;;;;;;;0.17;0.10;;;;;;;;;;5033452;28;20372;-87
2022/04/01 01:13:02;;;;;;;0.45;0.45;;;;;;;;;;5016795;28;20374;-87
2022/04/01 01:15:27;;;;;;;1.25;1.00;;;;;;;;;;5016338;28;20036;-88
2022/04/01 01:17:52;;;;;;;0.30;0.30;;;;;;;;;;5041325;28;20033;-89
2022/04/01 01:20:18;;;;;;;1.75;0.50;;;;;;;;;;5042915;28;20034;-87
2022/04/01 01:22:47;;;;;;;0.77;0.52;;;;;;;;;;5043675;28;20104;-85
2022/04/01 01:25:13;;;;;;;0.30;0.30;;;;;;;;;;5054031;28;20045;-87
2022/04/01 01:27:42;;;;;;;0.20;0.20;;;;;;;;;;5030721;28;20099;-86
2022/04/01 01:30:13;;;;;;;0.32;0.32;;;;;;;;;;5040389;28;20022;-89
2022/04/01 01:32:38;;;;;;;0.10;0.10;;;;;;;;;;5025430;28;20041;-88
2022/04/01 01:35:08;;;;;;;0.28;0.28;;;;;;;;;;5042429;28;20040;-87
2022/04/01 01:37:36;;;;;;;0.00;0.00;;;;;;;;;;5023388;28;20434;-89
2022/04/01 01:40:03;;;;;;;0.73;0.50;;;;;;;;;;5020134;28;20784;-89
2022/04/01 01:42:28;;;;;;;0.70;0.70;;;;;;;;;;5042192;28;20040;-88
2022/04/01 01:44:54;;;;;;;0.03;0.03;;;;;;;;;;5042016;28;20021;-89
2022/04/01 01:47:22;;;;;;;0.70;0.70;;;;;;;;;;5041767;28;20041;-88
2022/04/01 01:55:20;;;;;;;0.40;0.40;;;;;;;;;;5035977;28;20118;-71
2022/04/01 01:57:45;;;;;;;0.40;0.40;;;;;;;;;;5039473;28;20458;-70
2022/04/01 02:00:16;;;;;;;0.17;0.17;;;;;;;;;;5038633;28;20063;-71
2022/04/01 02:02:42;;;;;;;0.08;0.08;;;;;;;;;;5039403;28;20029;-71
2022/04/01 02:05:07;;;;;;;0.17;0.17;;;;;;;;;;5035572;28;20099;-71
2022/04/01 02:07:33;;;;;;;0.38;0.30;;;;;;;;;;5019024;28;20335;-73
2022/04/01 02:09:59;;;;;;;0.30;0.30;;;;;;;;;;5039681;28;20037;-71
2022/04/01 02:12:24;;;;;;;0.00;0.00;;;;;;;;;;5039977;28;20307;-71
2022/04/01 02:14:55;;;;;;;0.05;0.05;;;;;;;;;;5020839;28;20033;-73
2022/04/01 02:17:21;;;;;;;0.52;0.52;;;;;;;;;;5039584;28;20484;-71
2022/04/01 02:19:49;;;;;;;0.00;0.00;;;;;;;;;;5039131;28;20443;-71
2022/04/01 02:22:15;;;;;;;0.65;0.65;;;;;;;;;;5038563;28;20049;-71
2022/04/01 02:24:41;;;;;;;0.05;0.05;;;;;;;;;;5039528;28;20029;-71
2022/04/01 02:27:07;;;;;;;0.22;0.22;;;;;;;;;;5036383;28;20017;-71
2022/04/01 02:29:35;;;;;;;0.00;0.00;;;;;;;;;;5037739;28;20033;-72
2022/04/01 02:32:00;;;;;;;0.20;0.20;;;;;;;;;;5036635;28;20036;-71
2022/04/01 02:34:26;;;;;;;0.28;0.28;;;;;;;;;;5037961;28;20021;-72
2022/04/01 02:36:53;;;;;;;0.38;0.38;;;;;;;;;;5036808;28;20029;-71
2022/04/01 02:39:19;;;;;;;0.00;0.00;;;;;;;;;;5005043;28;20033;-71
2022/04/01 02:41:44;;;;;;;0.10;0.10;;;;;;;;;;5036854;28;20040;-71
2022/04/01 02:44:12;;;;;;;0.00;0.00;;;;;;;;;;5034025;28;20029;-71
2022/04/01 02:46:44;;;;;;;0.00;0.00;;;;;;;;;;5033949;28;20120;-72
2022/04/01 02:49:12;;;;;;;0.00;0.00;;;;;;;;;;5036507;28;20032;-72
2022/04/01 02:51:40;;;;;;;0.25;0.25;;;;;;;;;;5036258;28;20037;-71
2022/04/01 02:54:06;;;;;;;0.38;0.20;;;;;;;;;;5036172;28;20039;-72
2022/04/01 02:56:33;;;;;;;0.00;0.00;;;;;;;;;;5035968;28;20025;-71
2022/04/01 02:59:00;;;;;;;0.70;0.70;;;;;;;;;;5018734;28;20037;-71
2022/04/01 03:01:26;;;;;;;0.13;0.13;;;;;;;;;;5029907;28;20021;-72
2022/04/01 03:03:51;;;;;;;0.10;0.10;;;;;;;;;;5037795;28;20026;-73
2022/04/01 03:06:17;;;;;;;0.25;0.25;;;;;;;;;;5035662;28;20044;-71
2022/04/01 03:08:43;;;;;;;0.03;0.03;;;;;;;;;;5035013;28;20029;-71
2022/04/01 03:11:11;;;;;;;0.00;0.00;;;;;;;;;;5035576;28;20068;-71
2022/04/01 03:13:37;;;;;;;0.47;0.47;;;;;;;;;;5035881;28;20076;-72
2022/04/01 03:16:02;;;;;;;0.55;0.55;;;;;;;;;;5036006;28;20053;-71
2022/04/01 03:18:27;;;;;;;0.00;0.00;;;;;;;;;;5035792;28;20036;-71
2022/04/01 03:20:53;;;;;;;0.00;0.00;;;;;;;;;;5034826;28;20048;-72
2022/04/01 03:23:18;;;;;;;0.22;0.22;;;;;;;;;;5035913;28;20079;-71
2022/04/01 03:25:44;;;;;;;0.20;0.20;;;;;;;;;;5018161;28;20033;-72
2022/04/01 03:28:09;;;;;;;0.70;0.70;;;;;;;;;;5032849;28;20079;-72
2022/04/01 03:30:37;;;;;;;0.55;0.50;;;;;;;;;;5035169;28;20026;-72
2022/04/01 03:33:05;;;;;;;1.65;1.02;;;;;;;;;;5035341;28;20025;-71
2022/04/01 03:35:32;;;;;;;0.75;0.75;;;;;;;;;;5035560;28;20030;-71
2022/04/01 03:38:01;;;;;;;0.32;0.20;;;;;;;;;;5034562;28;20343;-71
2022/04/01 03:40:29;;;;;;;0.00;0.00;;;;;;;;;;5017374;28;20387;-71
2022/04/01 03:42:55;;;;;;;0.95;0.85;;;;;;;;;;5034296;28;20410;-71
2022/04/01 03:45:23;;;;;;;0.20;0.20;;;;;;;;;;5018494;28;20344;-71
2022/04/01 03:48:35;;;;;;;0.10;0.10;;;;;;;;;;5018062;28;20029;-71
2022/04/01 03:51:01;;;;;;;0.25;0.25;;;;;;;;;;5025577;28;20044;-72
2022/04/01 03:53:28;;;;;;;0.30;0.30;;;;;;;;;;5013873;28;20053;-71
2022/04/01 03:55:58;;;;;;;0.30;0.30;;;;;;;;;;5017620;28;20025;-72
2022/04/01 03:58:34;;;;;;;0.52;0.52;;;;;;;;;;5034863;28;20476;-72
2022/04/01 04:01:08;;;;;;;0.22;0.22;;;;;;;;;;5033427;28;20127;-71
2022/04/01 04:03:33;;;;;;;0.45;0.38;;;;;;;;;;5016474;28;20033;-71
2022/04/01 04:06:00;;;;;;;1.00;0.90;;;;;;;;;;5013175;28;20485;-71
2022/04/01 04:08:26;;;;;;;0.30;0.30;;;;;;;;;;5011336;28;20026;-71
2022/04/01 04:10:52;;;;;;;0.00;0.00;;;;;;;;;;5015611;28;20113;-73
2022/04/01 04:13:25;;;;;;;0.85;0.63;;;;;;;;;;5036127;28;20040;-72
2022/04/01 04:16:13;;;;;;;0.00;0.00;;;;;;;;;;5036356;28;20375;-72
2022/04/01 04:18:47;;;;;;;0.10;0.10;;;;;;;;;;5034082;28;20045;-72
2022/04/01 04:21:25;;;;;;;0.10;0.05;;;;;;;;;;5029716;28;20033;-71
2022/04/01 04:24:20;;;;;;;0.00;0.00;;;;;;;;;;5018448;28;20079;-72
2022/04/01 04:26:50;;;;;;;0.00;0.00;;;;;;;;;;5034599;28;20451;-72
2022/04/01 04:29:19;;;;;;;0.20;0.20;;;;;;;;;;5019973;28;20036;-71
2022/04/01 04:32:03;;;;;;;0.10;0.10;;;;;;;;;;5034318;28;20030;-73
2022/04/01 04:34:38;;;;;;;0.00;0.00;;;;;;;;;;5031907;28;20029;-71
2022/04/01 04:37:14;;;;;;;0.20;0.20;;;;;;;;;;5030563;28;20033;-72
2022/04/01 04:39:43;;;;;;;0.20;0.13;;;;;;;;;;5030941;28;20025;-72
2022/04/01 04:42:11;;;;;;;0.15;0.15;;;;;;;;;;5013718;28;20128;-70
2022/04/01 04:44:39;;;;;;;0.55;0.55;;;;;;;;;;5039076;28;20025;-71
2022/04/01 04:47:05;;;;;;;0.30;0.30;;;;;;;;;;5016255;28;20095;-71
2022/04/01 04:49:36;;;;;;;0.10;0.10;;;;;;;;;;5034276;28;20493;-73
2022/04/01 04:52:05;;;;;;;2.28;1.08;;;;;;;;;;5017092;28;20044;-71
2022/04/01 04:54:33;;;;;;;0.25;0.25;;;;;;;;;;5029091;28;20029;-72
2022/04/01 04:56:59;;;;;;;0.10;0.10;;;;;;;;;;4995769;28;20367;-73
2022/04/01 04:59:25;;;;;;;0.55;0.55;;;;;;;;;;5015642;28;20036;-72
2022/04/01 05:02:16;;;;;;;0.35;0.35;;;;;;;;;;5015581;28;20025;-73
2022/04/01 05:05:04;;;;;;;0.10;0.10;;;;;;;;;;5029062;28;20408;-74
2022/04/01 05:07:57;;;;;;;0.10;0.10;;;;;;;;;;5026863;28;20466;-75
2022/04/01 05:10:29;;;;;;;0.20;0.20;;;;;;;;;;5028032;28;20108;-75
2022/04/01 05:13:02;;;;;;;0.20;0.20;;;;;;;;;;5030201;28;20022;-74
2022/04/01 05:15:36;;;;;;;0.00;0.00;;;;;;;;;;5016290;28;20108;-73
2022/04/01 05:18:22;;;;;;;0.20;0.20;;;;;;;;;;5017064;28;20104;-74
2022/04/01 05:20:53;;;;;;;0.40;0.40;;;;;;;;;;5034081;28;20027;-73
2022/04/01 05:23:40;;;;;;;0.28;0.28;;;;;;;;;;5011993;28;20096;-74
2022/04/01 05:26:16;;;;;;;0.22;0.15;;;;;;;;;;5029664;28;20036;-74
2022/04/01 05:28:49;;;;;;;1.05;1.05;;;;;;;;;;5017266;28;20342;-74
2022/04/01 05:31:22;;;;;;;1.17;0.30;;;;;;;;;;5032233;28;20354;-74
2022/04/01 05:34:12;;;;;;;0.17;0.17;;;;;;;;;;5016497;28;20079;-74
2022/04/01 05:36:39;;;;;;;0.40;0.38;;;;;;;;;;5027988;28;20037;-74
2022/04/01 05:39:05;;;;;;;0.00;0.00;;;;;;;;;;5016420;28;20362;-74
2022/04/01 05:41:30;;;;;;;0.10;0.10;;;;;;;;;;5015814;28;20040;-73
2022/04/01 05:44:00;;;;;;;0.00;0.00;;;;;;;;;;5017336;28;20064;-75
2022/04/01 05:46:26;;;;;;;0.00;0.00;;;;;;;;;;5034456;28;20438;-74
2022/04/01 05:48:54;;;;;;;0.10;0.10;;;;;;;;;;5033753;28;20076;-74
2022/04/01 05:51:19;;;;;;;0.00;0.00;;;;;;;;;;5016543;28;20109;-74
2022/04/01 05:53:47;;;;;;;0.10;0.10;;;;;;;;;;5033035;28;20104;-74
2022/04/01 05:56:13;;;;;;;0.00;0.00;;;;;;;;;;5016370;28;20025;-74
2022/04/01 05:58:43;;;;;;;0.20;0.20;;;;;;;;;;5033568;28;20040;-75
2022/04/01 06:01:22;;;;;;;0.13;0.10;;;;;;;;;;5034076;28;20347;-75
2022/04/01 06:04:22;;;;;;;0.20;0.20;;;;;;;;;;5032455;28;20852;-75
2022/04/01 06:06:48;;;;;;;0.00;0.00;;;;;;;;;;5023979;28;20550;-74
2022/04/01 06:09:38;;;;;;;0.00;0.00;;;;;;;;;;5012623;28;20117;-74
2022/04/01 06:12:29;;;;;;;0.00;0.00;;;;;;;;;;5033677;28;20048;-74
2022/04/01 06:15:08;;;;;;;0.00;0.00;;;;;;;;;;5014217;28;20363;-74
2022/04/01 06:17:48;;;;;;;0.00;0.00;;;;;;;;;;5037382;28;20022;-74
2022/04/01 06:20:16;;;;;;;0.00;0.00;;;;;;;;;;5019616;28;20025;-74
2022/04/01 06:23:08;;;;;;;0.00;0.00;;;;;;;;;;5037338;28;20025;-74
2022/04/01 06:25:38;;;;;;;0.00;0.00;;;;;;;;;;5036936;28;20033;-74
2022/04/01 06:28:30;;;;;;;0.00;0.00;;;;;;;;;;5031130;28;20036;-74
2022/04/01 06:31:04;;;;;;;0.15;0.15;;;;;;;;;;5036921;28;20049;-73
2022/04/01 06:33:54;;;;;;;0.08;0.08;;;;;;;;;;5019675;28;20389;-74
2022/04/01 06:36:49;;;;;;;0.00;0.00;;;;;;;;;;5031803;28;20027;-74
2022/04/01 06:39:30;;;;;;;0.00;0.00;;;;;;;;;;5032809;28;20029;-74
2022/04/01 06:41:59;;;;;;;0.05;0.05;;;;;;;;;;5036363;28;20466;-74
2022/04/01 06:44:25;;;;;;;0.00;0.00;;;;;;;;;;5013693;28;20099;-74
2022/04/01 06:46:51;;;;;;;0.10;0.10;;;;;;;;;;5019578;28;20037;-74
2022/04/01 06:49:17;;;;;;;0.00;0.00;;;;;;;;;;5030669;28;20017;-74
2022/04/01 06:51:42;;;;;;;0.20;0.20;;;;;;;;;;5019332;28;20095;-74
2022/04/01 06:54:08;;;;;;;0.00;0.00;;;;;;;;;;5031828;28;20030;-74
2022/04/01 06:56:34;;;;;;;0.22;0.22;;;;;;;;;;5019865;28;20030;-74
2022/04/01 06:58:59;;;;;;;0.20;0.20;;;;;;;;;;5036556;28;20021;-74
2022/04/01 07:01:28;;;;;;;0.10;0.10;;;;;;;;;;5017812;28;20017;-74
2022/04/01 07:03:55;;;;;;;0.30;0.13;;;;;;;;;;5018462;28;20146;-74
2022/04/01 07:06:22;;;;;;;0.00;0.00;;;;;;;;;;5036295;28;20025;-74
2022/04/01 07:08:48;;;;;;;0.00;0.00;;;;;;;;;;5036539;28;20033;-75
2022/04/01 07:11:34;;;;;;;0.15;0.15;;;;;;;;;;5014785;28;20223;-74
2022/04/01 07:14:00;;;;;;;0.00;0.00;;;;;;;;;;5035723;28;20029;-75
2022/04/01 07:16:25;;;;;;;0.00;0.00;;;;;;;;;;5030084;28;20037;-74
2022/04/01 07:18:51;;;;;;;0.00;0.00;;;;;;;;;;5035976;28;20450;-73
2022/04/01 07:21:16;;;;;;;0.10;0.10;;;;;;;;;;5031191;28;20039;-73
2022/04/01 07:23:42;;;;;;;0.22;0.22;;;;;;;;;;5034952;28;20021;-75
2022/04/01 07:26:08;;;;;;;0.00;0.00;;;;;;;;;;5034886;28;20021;-74
2022/04/01 07:28:34;;;;;;;0.68;0.68;;;;;;;;;;5029929;28;20332;-74
2022/04/01 07:32:28;;;;;;;0.43;0.43;;;;;;;;;;5033008;28;20117;-75
2022/04/01 07:33:49;;;;;;;0.10;0.10;;;;;;;;;;5031226;28;20481;-73
2022/04/01 07:36:15;;;;;;;0.03;0.03;;;;;;;;;;5018578;28;20083;-74
2022/04/01 07:38:40;;;;;;;0.00;0.00;;;;;;;;;;5035733;28;20021;-74
2022/04/01 07:41:06;;;;;;;0.57;0.57;;;;;;;;;;5032413;28;20021;-74
2022/04/01 07:43:33;;;;;;;0.10;0.10;;;;;;;;;;5035611;28;20048;-74
2022/04/01 07:45:59;;;;;;;0.00;0.00;;;;;;;;;;5012985;28;20025;-74
2022/04/01 07:48:24;;;;;;;0.10;0.10;;;;;;;;;;5011389;28;20355;-74
2022/04/01 07:50:50;;;;;;;0.10;0.10;;;;;;;;;;4995081;28;20136;-74
2022/04/01 07:53:18;;;;;;;0.55;0.55;;;;;;;;;;5033436;28;20034;-74
2022/04/01 07:55:48;;;;;;;0.00;0.00;;;;;;;;;;5031631;28;20105;-75
2022/04/01 07:58:14;;;;;;;0.00;0.00;;;;;;;;;;5034608;28;20030;-75
2022/04/01 08:00:40;;;;;;;0.20;0.20;;;;;;;;;;5017996;28;20160;-74
2022/04/01 08:03:05;;;;;;;0.00;0.00;;;;;;;;;;5033314;28;20042;-74
2022/04/01 08:05:33;;;;;;;0.10;0.10;;;;;;;;;;5028907;28;20030;-75
2022/04/01 08:07:58;;;;;;;0.00;0.00;;;;;;;;;;5035241;28;20119;-75
2022/04/01 08:10:28;;;;;;;0.00;0.00;;;;;;;;;;5033420;28;20079;-76
2022/04/01 08:12:54;;;;;;;0.38;0.38;;;;;;;;;;5034927;28;20083;-75
2022/04/01 08:15:19;;;;;;;0.00;0.00;;;;;;;;;;5017644;28;20373;-76
2022/04/01 08:17:45;;;;;;;0.30;0.30;;;;;;;;;;5017779;28;20533;-75
2022/04/01 08:20:12;;;;;;;0.00;0.00;;;;;;;;;;5035332;28;20039;-76
2022/04/01 08:22:41;;;;;;;0.30;0.30;;;;;;;;;;5027851;28;20029;-75
2022/04/01 08:25:07;;;;;;;0.00;0.00;;;;;;;;;;5011166;28;20470;-76
2022/04/01 08:27:33;;;;;;;0.10;0.10;;;;;;;;;;5017324;28;20037;-75
2022/04/01 08:29:59;;;;;;;0.45;0.45;;;;;;;;;;5017178;28;20124;-75
2022/04/01 08:32:29;;;;;;;0.15;0.15;;;;;;;;;;5017516;28;20052;-75
2022/04/01 08:34:55;;;;;;;0.00;0.00;;;;;;;;;;5035336;28;20067;-74
2022/04/01 08:37:20;;;;;;;0.00;0.00;;;;;;;;;;5029689;28;20029;-75
2022/04/01 08:39:48;;;;;;;0.30;0.30;;;;;;;;;;5017108;28;20029;-75
2022/04/01 08:42:14;;;;;;;0.05;0.05;;;;;;;;;;5033768;28;20025;-76
2022/04/01 08:44:43;;;;;;;0.28;0.28;;;;;;;;;;5034316;28;20043;-75
2022/04/01 08:47:09;;;;;;;0.47;0.20;;;;;;;;;;5034474;28;20037;-76
2022/04/01 08:49:37;;;;;;;0.00;0.00;;;;;;;;;;5017218;28;20461;-75
2022/04/01 08:52:08;;;;;;;0.10;0.10;;;;;;;;;;5034120;28;20402;-75
2022/04/01 08:54:37;;;;;;;0.00;0.00;;;;;;;;;;5017266;28;20107;-75
2022/04/01 08:57:04;;;;;;;0.00;0.00;;;;;;;;;;5033258;28;20025;-75
2022/04/01 08:59:33;;;;;;;0.00;0.00;;;;;;;;;;5032277;28;20041;-75
2022/04/01 09:02:10;;;;;;;0.10;0.10;;;;;;;;;;5028198;28;20021;-76
2022/04/01 09:04:36;;;;;;;0.03;0.03;;;;;;;;;;5017037;28;20034;-75
2022/04/01 09:07:15;;;;;;;0.25;0.25;;;;;;;;;;5016377;28;20052;-75
2022/04/01 09:09:42;;;;;;;0.22;0.22;;;;;;;;;;5033672;28;20033;-73
2022/04/01 09:12:12;;;;;;;0.17;0.17;;;;;;;;;;5019359;28;20622;-73
2022/04/01 09:14:42;;;;;;;0.00;0.00;;;;;;;;;;5000209;28;20025;-74
2022/04/01 09:17:10;;;;;;;0.25;0.22;;;;;;;;;;5016497;28;20072;-75
2022/04/01 09:19:38;;;;;;;0.00;0.00;;;;;;;;;;5016910;28;20017;-74
2022/04/01 09:22:24;;;;;;;0.00;0.00;;;;;;;;;;5016876;28;20568;-74
2022/04/01 09:25:00;;;;;;;0.00;0.00;;;;;;;;;;5034238;28;20365;-74
2022/04/01 09:27:49;;;;;;;0.00;0.00;;;;;;;;;;5033636;28;20030;-74
2022/04/01 09:30:23;;;;;;;0.00;0.00;;;;;;;;;;5031552;28;20343;-74
2022/04/01 09:32:58;;;;;;;0.57;0.57;;;;;;;;;;5033723;28;20080;-74
2022/04/01 09:35:31;;;;;;;0.00;0.00;;;;;;;;;;5034024;28;20449;-74
2022/04/01 09:38:07;;;;;;;0.15;0.15;;;;;;;;;;5016367;28;20032;-74
2022/04/01 09:40:35;;;;;;;0.00;0.00;;;;;;;;;;5034093;28;20025;-74
2022/04/01 09:43:00;;;;;;;0.03;0.03;;;;;;;;;;5016448;28;20104;-74
2022/04/01 09:45:32;;;;;;;0.30;0.30;;;;;;;;;;5033730;28;20136;-74
2022/04/01 09:48:03;;;;;;;0.68;0.13;;;;;;;;;;5034555;28;20174;-74
2022/04/01 09:50:45;;;;;;;0.25;0.25;;;;;;;;;;5037954;28;20021;-73
2022/04/01 09:53:10;;;;;;;0.00;0.00;;;;;;;;;;5020786;28;20437;-74
2022/04/01 09:55:38;;;;;;;0.13;0.10;;;;;;;;;;5037793;28;20079;-74
2022/04/01 09:58:04;;;;;;;0.15;0.10;;;;;;;;;;5037807;28;20438;-74
2022/04/01 10:00:30;;;;;;;0.08;0.08;;;;;;;;;;5037588;28;20512;-74
2022/04/01 10:02:59;;;;;;;0.00;0.00;;;;;;;;;;5019703;28;20033;-74
2022/04/01 10:05:25;;;;;;;0.10;0.10;;;;;;;;;;5015858;28;20120;-74
2022/04/01 10:07:52;;;;;;;0.03;0.03;;;;;;;;;;5020196;28;20052;-74
2022/04/01 10:10:18;;;;;;;0.22;0.22;;;;;;;;;;5002508;28;20026;-74
2022/04/01 10:12:45;;;;;;;0.32;0.30;;;;;;;;;;5002909;28;20100;-74
2022/04/01 10:15:11;;;;;;;0.00;0.00;;;;;;;;;;5020110;28;20028;-74
2022/04/01 10:17:39;;;;;;;0.52;0.15;;;;;;;;;;5019367;28;20355;-74
2022/04/01 10:20:05;;;;;;;0.00;0.00;;;;;;;;;;5036921;28;20083;-74
2022/04/01 10:22:33;;;;;;;0.10;0.10;;;;;;;;;;5019622;28;20053;-74
2022/04/01 10:25:39;;;;;;;0.00;0.00;;;;;;;;;;5035925;28;20553;-75
2022/04/01 10:28:22;;;;;;;0.00;0.00;;;;;;;;;;5000878;28;20463;-74
2022/04/01 10:30:58;;;;;;;0.00;0.00;;;;;;;;;;5036972;28;20043;-75
2022/04/01 10:33:33;;;;;;;0.47;0.47;;;;;;;;;;5014942;28;20061;-74
2022/04/01 10:35:59;;;;;;;0.00;0.00;;;;;;;;;;5036428;28;20025;-74
2022/04/01 10:38:33;;;;;;;0.10;0.10;;;;;;;;;;5019226;28;20050;-76
2022/04/01 10:41:15;;;;;;;0.00;0.00;;;;;;;;;;5018500;28;20083;-75
2022/04/01 10:43:54;;;;;;;0.40;0.25;;;;;;;;;;5036616;28;20468;-79
2022/04/01 10:46:20;;;;;;;0.00;0.00;;;;;;;;;;5033767;28;20049;-75
2022/04/01 10:52:11;;;;;;;0.03;0.03;;;;;;;;;;5025433;28;20375;-74
2022/04/01 10:54:44;;;;;;;0.00;0.00;;;;;;;;;;5032596;28;20026;-74
2022/04/01 10:57:25;;;;;;;1.13;0.13;;;;;;;;;;5015231;28;20442;-74
2022/04/01 10:59:56;;;;;;;0.00;0.00;;;;;;;;;;5018269;28;20076;-74
2022/04/01 11:02:23;;;;;;;0.10;0.10;;;;;;;;;;5020025;28;20033;-74
2022/04/01 11:04:51;;;;;;;0.03;0.03;;;;;;;;;;5018748;28;20052;-74
2022/04/01 11:07:23;;;;;;;0.03;0.03;;;;;;;;;;5018325;28;20041;-74
2022/04/01 11:09:55;;;;;;;0.17;0.17;;;;;;;;;;5036314;28;20060;-73
2022/04/01 11:12:25;;;;;;;0.20;0.20;;;;;;;;;;5013968;28;20359;-74
2022/04/01 11:14:53;;;;;;;0.30;0.25;;;;;;;;;;5018949;28;20338;-74
2022/04/01 11:17:26;;;;;;;0.10;0.10;;;;;;;;;;5036002;28;20029;-76
2022/04/01 11:20:09;;;;;;;0.10;0.10;;;;;;;;;;5034842;28;20040;-74
2022/04/01 11:22:35;;;;;;;0.00;0.00;;;;;;;;;;5034451;28;20026;-74
2022/04/01 11:25:00;;;;;;;1.33;0.52;;;;;;;;;;5035519;28;20032;-74
2022/04/01 11:27:26;;;;;;;0.03;0.03;;;;;;;;;;5031568;28;20099;-74
2022/04/01 11:30:14;;;;;;;0.20;0.20;;;;;;;;;;5035614;28;20061;-74
2022/04/01 11:32:44;;;;;;;0.13;0.10;;;;;;;;;;5035912;28;20430;-74
2022/04/01 11:35:13;;;;;;;0.10;0.10;;;;;;;;;;5035943;28;20018;-74
2022/04/01 11:37:45;;;;;;;0.50;0.50;;;;;;;;;;5018312;28;20037;-74
2022/04/01 11:40:16;;;;;;;0.55;0.55;;;;;;;;;;5034485;28;20057;-74
2022/04/01 11:42:57;;;;;;;0.55;0.55;;;;;;;;;;5017346;28;20083;-73
2022/04/01 11:45:23;;;;;;;0.00;0.00;;;;;;;;;;5016373;28;20072;-74
2022/04/01 11:47:48;;;;;;;0.13;0.13;;;;;;;;;;5017775;28;20033;-74
2022/04/01 11:50:16;;;;;;;0.20;0.20;;;;;;;;;;5018137;28;20075;-75
2022/04/01 11:52:41;;;;;;;0.00;0.00;;;;;;;;;;5034998;28;20029;-75
2022/04/01 11:55:24;;;;;;;0.13;0.13;;;;;;;;;;5034657;28;20040;-74
2022/04/01 11:57:55;;;;;;;0.30;0.30;;;;;;;;;;5018044;28;20037;-75
2022/04/01 12:00:26;;;;;;;0.30;0.30;;;;;;;;;;5016360;28;20030;-74
2022/04/01 12:02:52;;;;;;;0.00;0.00;;;;;;;;;;5017646;28;20037;-74
2022/04/01 12:05:19;;;;;;;2.40;1.90;;;;;;;;;;4995366;28;20045;-74
2022/04/01 12:10:38;;;;;;;0.10;0.03;;;;;;;;;;5033893;28;20094;-75
2022/04/01 12:13:06;;;;;;;1.98;1.13;;;;;;;;;;5034121;28;20026;-74
2022/04/01 12:15:47;;;;;;;0.10;0.10;;;;;;;;;;5017482;28;20415;-74
2022/04/01 12:18:17;;;;;;;0.20;0.20;;;;;;;;;;5017569;28;20021;-75
2022/04/01 12:21:09;;;;;;;0.65;0.55;;;;;;;;;;5032468;28;20056;-76
2022/04/01 12:23:35;;;;;;;0.00;0.00;;;;;;;;;;5011492;28;20067;-76
2022/04/01 12:26:01;;;;;;;0.38;0.38;;;;;;;;;;5028870;28;20025;-73
2022/04/01 12:28:36;;;;;;;0.35;0.35;;;;;;;;;;5030149;28;20053;-73
2022/04/01 12:31:04;;;;;;;0.20;0.20;;;;;;;;;;5034440;28;20025;-73
2022/04/01 12:33:33;;;;;;;0.00;0.00;;;;;;;;;;5031053;28;20526;-74
2022/04/01 12:36:05;;;;;;;0.35;0.35;;;;;;;;;;5034053;28;20102;-73
2022/04/01 12:38:34;;;;;;;0.00;0.00;;;;;;;;;;5013997;28;20643;-73
2022/04/01 12:41:02;;;;;;;0.05;0.05;;;;;;;;;;5010351;28;20033;-73
2022/04/01 12:43:45;;;;;;;1.05;1.05;;;;;;;;;;5026556;28;20033;-73
2022/04/01 12:46:16;;;;;;;0.00;0.00;;;;;;;;;;5016809;28;20030;-73
2022/04/01 12:49:10;;;;;;;0.00;0.00;;;;;;;;;;5033162;28;20546;-73
2022/04/01 12:52:00;;;;;;;0.28;0.28;;;;;;;;;;5014144;28;20172;-73
2022/04/01 12:54:39;;;;;;;0.00;0.00;;;;;;;;;;5030140;28;20033;-74
2022/04/01 12:57:08;;;;;;;0.10;0.10;;;;;;;;;;4997451;28;20028;-73
2022/04/01 12:59:39;;;;;;;0.28;0.28;;;;;;;;;;5031996;28;20087;-72
2022/04/01 13:02:23;;;;;;;0.70;0.20;;;;;;;;;;5016873;28;20033;-73
2022/04/01 13:04:51;;;;;;;0.25;0.25;;;;;;;;;;5016057;28;20025;-74
2022/04/01 13:07:18;;;;;;;0.43;0.43;;;;;;;;;;5032940;28;20360;-75
2022/04/01 13:09:53;;;;;;;0.10;0.10;;;;;;;;;;5033504;28;20104;-75
2022/04/01 13:12:21;;;;;;;0.68;0.28;;;;;;;;;;5031981;28;20048;-75
2022/04/01 13:15:04;;;;;;;0.10;0.10;;;;;;;;;;5032210;28;20021;-76
2022/04/01 13:17:49;;;;;;;0.05;0.05;;;;;;;;;;5029522;28;20121;-74
2022/04/01 13:20:17;;;;;;;0.25;0.25;;;;;;;;;;5016024;28;20037;-75
2022/04/01 13:22:43;;;;;;;0.03;0.03;;;;;;;;;;5015980;28;20033;-74
2022/04/01 13:25:52;;;;;;;0.00;0.00;;;;;;;;;;5029980;28;20354;-75
2022/04/01 13:28:47;;;;;;;1.25;0.22;;;;;;;;;;5031499;28;20057;-75
2022/04/01 13:31:16;;;;;;;0.70;0.40;;;;;;;;;;5033239;28;20413;-75
2022/04/01 13:33:43;;;;;;;0.00;0.00;;;;;;;;;;5030909;28;20037;-76
2022/04/01 13:36:26;;;;;;;0.08;0.03;;;;;;;;;;5033119;28;20032;-76
2022/04/01 13:38:51;;;;;;;1.35;0.20;;;;;;;;;;5013078;28;20029;-74
2022/04/01 13:41:17;;;;;;;0.00;0.00;;;;;;;;;;5033118;28;20091;-74
2022/04/01 13:43:46;;;;;;;0.00;0.00;;;;;;;;;;5016469;28;20025;-75
2022/04/01 13:46:12;;;;;;;0.10;0.10;;;;;;;;;;5024256;28;20342;-74
2022/04/01 13:48:37;;;;;;;0.00;0.00;;;;;;;;;;5032146;28;20422;-75
2022/04/01 13:51:03;;;;;;;0.00;0.00;;;;;;;;;;5011947;28;20113;-74
2022/04/01 13:53:28;;;;;;;0.52;0.52;;;;;;;;;;5009738;28;20056;-74
2022/04/01 13:55:57;;;;;;;0.10;0.10;;;;;;;;;;5028006;28;20358;-74
2022/04/01 13:58:23;;;;;;;1.13;0.30;;;;;;;;;;5020306;28;20030;-77
2022/04/01 14:00:49;;;;;;;0.47;0.47;;;;;;;;;;5026782;28;20416;-75
2022/04/01 14:03:16;;;;;;;0.77;0.57;;;;;;;;;;5006715;28;20021;-73
2022/04/01 14:05:42;;;;;;;0.10;0.10;;;;;;;;;;5029651;28;20411;-72
2022/04/01 14:08:10;;;;;;;0.10;0.10;;;;;;;;;;5009961;28;20075;-72
2022/04/01 14:10:35;;;;;;;1.08;0.32;;;;;;;;;;5033050;28;20053;-72
2022/04/01 14:13:00;;;;;;;0.40;0.40;;;;;;;;;;5032267;28;20079;-74
2022/04/01 14:15:26;;;;;;;0.00;0.00;;;;;;;;;;5035041;28;20050;-73
2022/04/01 14:17:51;;;;;;;0.57;0.57;;;;;;;;;;5026923;28;20022;-74
2022/04/01 14:20:17;;;;;;;0.20;0.20;;;;;;;;;;5024417;28;20045;-76
2022/04/01 14:22:42;;;;;;;0.35;0.15;;;;;;;;;;5029134;28;20096;-75
2022/04/01 14:25:08;;;;;;;0.30;0.30;;;;;;;;;;5024160;28;20033;-75
2022/04/01 14:27:35;;;;;;;0.05;0.05;;;;;;;;;;5028014;28;20039;-74
2022/04/01 14:30:18;;;;;;;0.13;0.13;;;;;;;;;;5008737;28;20021;-76
2022/04/01 14:32:44;;;;;;;0.10;0.10;;;;;;;;;;5008480;28;20465;-75
2022/04/01 14:35:09;;;;;;;0.00;0.00;;;;;;;;;;5031128;28;20100;-75
2022/04/01 14:37:35;;;;;;;0.00;0.00;;;;;;;;;;5017014;28;20117;-75
2022/04/01 14:40:04;;;;;;;0.00;0.00;;;;;;;;;;5035264;28;20029;-78
2022/04/01 14:42:32;;;;;;;0.00;0.00;;;;;;;;;;5018917;28;20040;-77
2022/04/01 14:44:59;;;;;;;0.35;0.35;;;;;;;;;;5032902;28;20367;-77
2022/04/01 14:47:28;;;;;;;0.55;0.55;;;;;;;;;;5036261;28;20120;-78
2022/04/01 14:49:54;;;;;;;0.25;0.25;;;;;;;;;;5018998;28;20029;-77
2022/04/01 14:52:19;;;;;;;0.00;0.00;;;;;;;;;;5036705;28;20032;-76
2022/04/01 14:54:45;;;;;;;0.10;0.10;;;;;;;;;;5002442;28;20053;-76
2022/04/01 14:57:11;;;;;;;0.05;0.05;;;;;;;;;;5021791;28;20026;-77
2022/04/01 14:59:44;;;;;;;0.52;0.52;;;;;;;;;;5034133;28;20037;-80
2022/04/01 15:02:12;;;;;;;0.40;0.40;;;;;;;;;;5034531;28;20025;-76
2022/04/01 15:04:39;;;;;;;0.68;0.68;;;;;;;;;;5035590;28;20139;-78
2022/04/01 15:07:04;;;;;;;0.50;0.50;;;;;;;;;;5036264;28;20566;-77
2022/04/01 15:09:33;;;;;;;0.20;0.20;;;;;;;;;;5016378;28;20051;-79
2022/04/01 15:12:03;;;;;;;0.47;0.47;;;;;;;;;;5039193;28;20028;-77
2022/04/01 15:14:28;;;;;;;0.03;0.03;;;;;;;;;;5035318;28;20030;-76